Weather observations for the past three days for
Chickasha, Chickasha Municipal Airport
Metric (Imperial)
Date Time (cdt) Wind (kph) Vis. (km) Weather Sky Cond. Temperature (ºC) Relative Humidity Wind Chill (°C) Heat Index (°C) Pressure Precipitation (cm)
Air Dwpt 6 hour altimeter (cm) sea level (mb) 1 hr 3 hr 6 hr
Max. Min.
25 03:15 Calm 16.09 Fair CLR 26.9 20.9 70% 29 75.84 0.0
25 02:55 Calm 16.09 Fair CLR 27.1 21 69% 29 75.84 0.0
25 02:35 Calm 16.09 Fair CLR 26.8 20.9 70% 29 75.84 0.0
25 02:15 Calm 16.09 Fair CLR 26.5 20.9 71% 28 75.87 0.0
25 01:55 Calm 16.09 Fair CLR 26.3 20.8 72% 28 75.87 0.0
25 01:35 Calm 16.09 Fair CLR 25.7 20.9 75% 27 75.87 0.0
25 01:15 Calm 16.09 Fair CLR 25.9 21.2 75% 27 75.87 0.0
25 00:55 Calm 16.09 Fair CLR 26.2 21.1 34 25.9 74% 28 75.87 0.0
25 00:35 Calm 16.09 Fair CLR 26.1 21.2 74% 28 75.9 0.0
25 00:15 Calm 16.09 Fair CLR 26.1 21.3 75% 28 75.9 0.0
24 23:55 Calm 16.09 Fair CLR 26.4 21.3 74% 28 75.9 0.0
24 23:35 Calm 16.09 Fair CLR 26.6 21.3 73% 28 75.9 0.0
24 23:15 Calm 16.09 Fair CLR 27 21.2 71% 29 75.87 0.0
24 22:55 Calm 16.09 Fair CLR 27.4 20.8 67% 29 75.84 0.0
24 22:35 Calm 16.09 Fair CLR 27.8 20.4 64% 30 75.84 0.0
24 22:15 Calm 16.09 Fair CLR 28.3 19.8 60% 30 75.82 0.0
24 21:55 Calm 16.09 Fair CLR 29.1 19.5 56% 31 75.82 0.0
24 21:35 Calm 16.09 Fair CLR 29.9 19.2 53% 31 75.79 0.0
24 21:15 Calm 16.09 Fair CLR 30.4 19.2 51% 32 75.79 0.0
24 20:55 Calm 16.09 Fair CLR 30.9 19.3 50% 32 75.79 0.0
24 20:35 Calm 16.09 Fair CLR 31.4 19.3 49% 33 75.77 0.0
24 20:15 S 19 G 28 16.09 Fair CLR 32 19.3 47% 34 75.77 0.0
24 19:55 Calm 16.09 Fair CLR 32.7 19.5 46% 35 75.79 0.0
24 19:35 S 13 G 28 16.09 Fair CLR 33.2 19.3 44% 35 75.79 0.0
24 19:15 S 26 G 33 16.09 Fair CLR 33.5 19.7 44% 36 75.79 0.0
24 18:55 Calm 16.09 Fair CLR 34 19.5 35.8 34 42% 36 75.79 0.0
24 18:35 S 24 G 33 16.09 Fair CLR 34.3 19.6 42% 36 75.79 0.0
24 18:15 SE 9 G 26 16.09 Fair CLR 34.6 19.3 40% 37 75.82 0.0
24 17:55 Calm 16.09 Fair CLR 34.9 18.7 38% 37 75.82 0.0
24 17:35 S 15 G 37 16.09 Fair CLR 35.1 18.2 37% 36 75.82 0.0
24 17:15 S 9 G 31 16.09 Fair CLR 35.5 19.2 38% 38 75.84 0.0
24 16:55 Calm 16.09 Fair CLR 35.5 18.8 37% 37 75.84 0.0
24 16:35 S 13 G 33 16.09 Fair CLR 35.5 19.3 38% 38 75.87 0.0
24 16:15 S 15 G 33 16.09 Fair CLR 35.3 19.2 39% 37 75.9 0.0
24 15:55 S 24 G 31 16.09 Fair CLR 35.6 20.1 40% 38 75.9 0.0
24 15:35 S 26 G 33 11.27 Fair CLR 35 19.4 40% 37 75.92 0.0
24 15:15 S 13 G 35 16.09 Fair CLR 35.4 20.2 41% 38 75.95 0.0
24 14:55 S 6 16.09 Fair CLR 35.2 20 41% 38 75.95 0.0
24 14:35 S 19 G 33 16.09 Fair CLR 35.1 20.4 42% 38 75.97 0.0
24 14:15 SE 19 G 30 16.09 Fair CLR 35.1 20.5 42% 38 75.97 0.0
24 13:55 SE 28 16.09 Fair CLR 34.8 20.1 42% 37 75.97 0.0
24 13:35 S 20 16.09 Fair CLR 35 21 44% 38 76 0.0
24 13:15 Calm 16.09 Fair CLR 34.7 20.6 44% 38 76 0.0
24 12:55 Calm 16.09 Fair CLR 34.2 20.2 34.3 25.7 44% 37 76.02 0.0
24 12:35 Calm 16.09 Fair CLR 33.8 20.1 45% 36 76.02 0.0
24 12:15 SW 17 G 30 16.09 Fair CLR 33.7 20.5 46% 36 76.05 0.0
24 11:55 S 15 16.09 Fair CLR 33.5 21.3 49% 37 76.05 0.0
24 11:35 S 17 16.09 Fair CLR 32.9 21 50% 36 76.05 0.0
24 11:15 S 6 G 31 16.09 Fair CLR 32.2 20.2 49% 35 76.05 0.0
24 10:55 S 15 16.09 Fair CLR 31.9 20.4 51% 34 76.05 0.0
24 10:35 Calm 16.09 Fair CLR 31.8 20.5 51% 34 76.05 0.0
24 10:15 SW 19 G 30 16.09 Fair CLR 31.2 20 51% 33 76.05 0.0
24 09:55 SW 13 G 35 16.09 Fair CLR 30.5 19.9 53% 32 76.05 0.0
24 09:35 SW 24 16.09 Fair CLR 30.1 20.2 55% 32 76.07 0.0
24 09:15 Calm 16.09 Partly Cloudy SCT090 29.1 20.6 60% 31 76.05 0.0
24 08:55 Calm 16.09 Mostly Cloudy BKN090 27.6 20.4 65% 29 76.07 0.0
24 08:35 SW 6 16.09 Partly Cloudy SCT090 27.3 20.7 67% 29 76.05 0.0
24 08:15 Calm 16.09 Partly Cloudy SCT090 27.1 20.7 68% 29 76.05 0.0
24 07:55 Calm 16.09 Fair CLR 26.7 20.7 70% 28 76.02 0.0
24 07:35 Calm 16.09 Fair CLR 26.4 20.5 70% 28 76.02 0.0
24 07:15 Calm 16.09 Partly Cloudy SCT095 25.8 20.5 73% 27 76 0.0
24 06:55 Calm 16.09 Mostly Cloudy BKN095 26 20.2 28.8 25.6 70% 27 76.02 0.0
24 06:35 Calm 16.09 Overcast OVC095 26 20.2 70% 27 76 0.0
24 06:15 Calm 16.09 Mostly Cloudy BKN095 26 20.1 70% 27 75.97 0.0
24 05:55 Calm 16.09 Partly Cloudy SCT095 25.9 20.2 71% 27 75.97 0.0
24 05:35 Calm 16.09 Partly Cloudy SCT095 26 20.1 70% 27 75.95 0.0
24 05:15 Calm 16.09 Fair CLR 26.3 20.1 69% 28 75.92 0.0
24 04:55 Calm 16.09 Fair CLR 26.5 20 68% 28 75.92 0.0
24 04:35 Calm 16.09 Fair CLR 26.5 20.1 68% 28 75.92 0.0
24 04:15 Calm 16.09 Fair CLR 27.1 20 65% 29 75.92 0.0
24 03:55 Calm 16.09 Fair CLR 27.2 19.9 64% 29 75.92 0.0
24 03:35 Calm 16.09 Fair CLR 27.2 19.9 64% 29 75.92 0.0
24 03:15 Calm 16.09 Fair CLR 27.4 19.9 64% 29 75.92 0.0
24 02:55 Calm 16.09 Fair CLR 27.6 19.9 63% 29 75.92 0.0
24 02:35 Calm 16.09 Fair CLR 27.6 20 63% 29 75.92 0.0
24 02:15 Calm 16.09 Fair CLR 27.9 20.1 63% 30 75.92 0.0
24 01:55 Calm 16.09 Fair CLR 28.2 20.2 62% 30 75.95 0.0
24 01:35 Calm 16.09 Fair CLR 28.4 20.3 62% 30 75.95 0.0
24 01:15 Calm 16.09 Fair CLR 28.6 20.4 61% 31 75.95 0.0
24 00:55 Calm 16.09 Fair CLR 28.6 20.6 36.7 28.6 62% 31 75.92 0.0
24 00:35 Calm 16.09 Fair CLR 28.7 20.7 62% 31 75.92 0.0
24 00:15 Calm 16.09 Fair CLR 28.9 20.8 62% 31 75.92 0.0
23 23:55 Calm 16.09 Fair CLR 29 20.8 61% 31 75.92 0.0
23 23:35 Calm 16.09 Fair CLR 28.9 20.7 61% 31 75.92 0.0
23 23:15 Calm 16.09 Fair CLR 29 20.7 61% 31 75.9 0.0
23 22:55 Calm 16.09 Fair CLR 29.3 20.7 60% 32 75.9 0.0
23 22:35 Calm 16.09 Fair CLR 29.9 20.6 57% 32 75.87 0.0
23 22:15 Calm 16.09 Fair CLR 30.3 20.6 56% 33 75.87 0.0
23 21:55 Calm 16.09 Fair CLR 31 20 52% 33 75.84 0.0
23 21:35 Calm 16.09 Fair CLR 30.9 20.8 55% 33 75.82 0.0
23 21:15 Calm 16.09 Fair CLR 31.5 21 54% 34 75.82 0.0
23 20:55 Calm 16.09 Fair CLR 32 21 52% 35 75.79 0.0
23 20:35 Calm 16.09 Fair CLR 33 20.8 49% 36 75.79 0.0
23 19:55 Calm 16.09 Fair CLR 34.1 20.2 44% 37 75.79 0.0
23 18:35 Calm 16.09 Fair CLR 37 19.2 35% 39 75.77 0.0
23 18:15 Calm 16.09 Fair CLR 37.2 19.5 35% 40 75.77 0.0
23 17:55 Calm 16.09 Partly Cloudy SCT100 37.4 19.1 34% 40 75.77 0.0
23 17:35 Calm 16.09 Partly Cloudy SCT100 37.6 19 34% 40 75.79 0.0
23 16:55 Calm 16.09 Mostly Cloudy BKN090 37.4 19.7 35% 40 75.82 0.0
23 16:35 Calm 16.09 Mostly Cloudy SCT090 BKN110 36.7 19.1 36% 39 75.82 0.0
23 16:15 Calm 16.09 Mostly Cloudy BKN090 37.9 20.9 37% 42 75.82 0.0
23 15:55 Calm 16.09 Mostly Cloudy BKN090 38.4 19.6 33% 41 75.82 0.0
23 15:35 Calm 16.09 Partly Cloudy SCT090 37.7 19.2 34% 40 75.84 0.0
23 15:15 Calm 16.09 Partly Cloudy SCT090 36.6 20.1 38% 40 75.87 0.0
23 14:55 Calm 16.09 Fair CLR 38.1 19.7 34% 41 75.87 0.0
23 14:35 Calm 16.09 Fair CLR 37.8 20.4 36% 41 75.92 0.0
23 14:15 Calm 16.09 Fair CLR 37.7 18.3 32% 40 75.92 0.0
23 13:55 Calm 16.09 Fair CLR 37.9 18.1 31% 40 75.95 0.0
23 13:35 Calm 16.09 Fair CLR 37.4 18.4 33% 39 75.95 0.0
23 13:15 Calm 16.09 Fair CLR 37.1 19.9 37% 40 75.97 0.0
23 12:55 Calm 16.09 Fair CLR 36.5 18.9 36.7 24.1 35% 39 76 0.0
23 12:35 Calm 16.09 Fair CLR 35.6 19.9 40% 38 76 0.0
23 12:15 Calm 16.09 Fair CLR 34.6 20.6 44% 38 76.02 0.0
23 11:55 Calm 16.09 Fair CLR 34.3 20.8 45% 37 76.02 0.0
23 11:35 Calm 11.27 Fair with Haze CLR 33.7 21.1 48% 37 76.02 0.0
23 11:15 Calm 16.09 Fair CLR 32.2 21.4 53% 35 76.05 0.0
23 10:55 Calm 16.09 Fair CLR 32.3 21.9 54% 36 76.05 0.0
23 10:35 Calm 16.09 Fair CLR 31.9 20.9 52% 35 76.05 0.0
23 10:15 Calm 16.09 Fair CLR 31.1 20.9 55% 34 76.05 0.0
23 09:55 Calm 16.09 Fair CLR 30.4 20.6 56% 33 76.05 0.0
23 09:35 Calm 16.09 Fair CLR 29.6 20.2 57% 32 76.05 0.0
23 09:15 SW 17 16.09 Partly Cloudy SCT095 29.6 20.5 58% 32 76.05 0.0
23 08:55 Calm 16.09 Partly Cloudy SCT095 28.6 20.4 61% 31 76.05 0.0
23 08:35 Calm 16.09 Fair CLR 27.8 20.2 63% 30 76.05 0.0
23 08:15 Calm 16.09 Partly Cloudy SCT100 27.3 20.3 66% 29 76.05 0.0
23 07:55 Calm 16.09 Partly Cloudy SCT100 26.3 20.6 71% 28 76.05 0.0
23 07:35 Calm 16.09 Fair CLR 25.5 20.3 73% 27 76.05 0.0
23 07:15 Calm 16.09 Partly Cloudy SCT100 24.4 20 77% 25 76.05 0.0
23 06:55 Calm 16.09 Partly Cloudy SCT100 24 19.9 27.9 23.6 78% 24 76.02 0.0
23 06:35 Calm 16.09 Mostly Cloudy BKN100 24.1 19.7 77% 25 76.02 0.0
23 06:15 Calm 16.09 Mostly Cloudy BKN090 24 19.7 77% 25 76 0.0
23 05:55 Calm 16.09 Partly Cloudy SCT090 23.7 19.6 78% 76 0.0
23 05:35 Calm 16.09 Mostly Cloudy BKN090 24.6 19.5 73% 25 76 0.0
23 05:15 Calm 16.09 Overcast OVC090 24.7 19.5 73% 26 76 0.0
23 04:55 Calm 16.09 Partly Cloudy SCT090 24.7 19.5 73% 26 76 0.0
23 04:35 Calm 16.09 Fair CLR 25.1 19.4 71% 26 76 0.0
23 04:15 Calm 16.09 Fair CLR 25.4 19.4 69% 26 76 0.0
23 03:55 Calm 16.09 Fair CLR 25.8 19.4 68% 27 76 0.0
23 03:35 Calm 16.09 Fair CLR 26 19.3 67% 27 76 0.0
23 03:15 Calm 16.09 Fair CLR 26.4 19.3 65% 28 76 0.0
23 02:55 Calm 16.09 Fair CLR 26.6 19.2 64% 28 76 0.0
23 02:35 Calm 16.09 Fair CLR 27.1 19.2 62% 28 76 0.0
23 02:15 Calm 16.09 Fair CLR 27 19.3 63% 28 75.97 0.0
23 01:55 Calm 16.09 Fair CLR 27.2 19.4 62% 29 76 0.0
23 01:35 S 9 16.09 Fair CLR 27.6 19.4 61% 29 76 0.0
23 01:15 Calm 16.09 Fair CLR 27.6 19.6 62% 29 76 0.0
23 00:55 Calm 16.09 Fair CLR 27.9 19.7 34.6 27.8 61% 29 76.02 0.0
23 00:35 Calm 16.09 Fair CLR 28 19.9 61% 30 76.02 0.0
23 00:15 Calm 16.09 Fair CLR 28 20.2 63% 30 76.02 0.0
22 23:55 Calm 16.09 Fair CLR 28.2 20.4 63% 30 76.02 0.0
22 23:35 Calm 16.09 Fair CLR 28.3 20.6 63% 30 76.02 0.0
22 23:15 Calm 16.09 Fair CLR 28 20.6 64% 30 76.02 0.0
22 22:55 Calm 16.09 Fair CLR 28.2 20.5 63% 30 76 0.0
22 22:35 Calm 16.09 Fair CLR 28.5 20.5 62% 30 75.97 0.0
22 22:15 Calm 16.09 Fair CLR 28.8 20.5 61% 31 75.97 0.0
22 21:55 Calm 16.09 Fair CLR 29.2 20.5 59% 31 75.95 0.0
22 21:35 Calm 16.09 Fair CLR 29.6 20.6 58% 32 75.92 0.0
22 21:15 Calm 16.09 Fair CLR 30 20.7 57% 32 75.92 0.0
22 20:55 S 6 16.09 Fair CLR 30.6 20.8 56% 33 75.92 0.0
22 20:35 Calm 16.09 Fair CLR 31.1 20.9 55% 34 75.92 0.0
22 20:15 Calm 16.09 Fair CLR 31.9 20.6 51% 34 75.92 0.0
22 19:55 Calm 16.09 Fair CLR 32.7 18.9 44% 34 75.92 0.0
22 19:35 Calm 16.09 Fair CLR 33.7 18.4 40% 35 75.92 0.0
22 19:15 S 13 16.09 Fair CLR 34.3 17.7 37% 35 75.92 0.0
22 18:55 Calm 16.09 Fair CLR 34.6 18.4 35.8 32.7 38% 36 75.92 0.0
22 18:35 S 15 G 28 16.09 Fair CLR 34.9 18 37% 36 75.95 0.0
22 18:15 SW 11 16.09 Fair CLR 35.2 18.1 36% 37 75.97 0.0
22 17:55 S 15 G 30 16.09 Partly Cloudy SCT070 35 18.1 37% 36 75.97 0.0
22 17:35 S 15 G 30 16.09 Fair CLR 35.4 18.9 38% 37 75.97 0.0
22 17:15 Calm 16.09 Fair CLR 35.2 18.9 38% 37 75.97 0.0
22 16:55 SW 19 G 31 16.09 Fair CLR 35.3 19.4 39% 38 76 0.0
22 16:35 SW 13 G 37 16.09 Fair CLR 34.8 19.2 40% 37 76.02 0.0
22 16:15 Calm 16.09 Partly Cloudy SCT070 35.3 19.4 39% 38 76.02 0.0
22 15:55 Calm 16.09 Partly Cloudy SCT065 35.1 19.6 40% 37 76.02 0.0
22 15:35 SW 11 G 33 16.09 Partly Cloudy SCT065 35 19 39% 37 76.05 0.0
22 15:15 S 22 G 33 16.09 Partly Cloudy SCT065 34.5 20.1 43% 37 76.05 0.0
22 14:55 S 17 G 28 16.09 Partly Cloudy SCT065 34.7 20.4 43% 38 76.07 0.0
22 14:35 SW 17 G 37 16.09 Fair CLR 34.4 19.6 42% 37 76.07 0.0
22 14:15 S 13 G 28 16.09 Fair CLR 34.2 20.2 44% 37 76.1 0.0
22 13:55 S 19 G 37 16.09 Fair CLR 34 20.7 46% 37 76.12 0.0
22 13:35 S 28 G 39 16.09 Partly Cloudy SCT049 33.5 20.6 47% 36 76.12 0.0
22 13:15 SW 19 G 30 16.09 Partly Cloudy SCT049 33.3 20.9 48% 36 76.15 0.0
22 12:55 S 22 G 31 16.09 Partly Cloudy SCT049 33.3 21.2 33.9 22.9 49% 37 76.17 0.0
22 12:35 SW 6 G 31 16.09 Mostly Cloudy BKN047 32.7 21.7 52% 36 76.17 0.0
22 12:15 SW 28 G 37 16.09 Partly Cloudy SCT047 32.6 21.5 52% 36 76.2 0.0
22 11:55 SW 24 G 37 16.09 Partly Cloudy SCT045 32.6 22 54% 37 76.2 0.0
22 11:35 SW 20 G 35 16.09 Fair CLR 32 21.7 54% 35 76.2 0.0
22 11:15 Calm 16.09 Fair CLR 31.7 22.2 57% 36 76.23 0.0
22 10:55 S 15 G 35 16.09 Fair CLR 30.7 22.2 61% 34 76.23 0.0
22 10:35 SW 26 G 37 16.09 Fair CLR 30.3 22.1 62% 34 76.23 0.0
22 10:15 S 30 G 41 16.09 Fair CLR 29.7 22 63% 33 76.25 0.0
22 09:55 SW 26 G 31 16.09 Fair CLR 29.1 21.9 65% 32 76.28 0.0
22 09:35 S 20 G 37 16.09 Fair CLR 28.6 21.7 66% 31 76.28 0.0
22 09:15 S 24 G 37 16.09 Fair CLR 28.1 21.5 67% 31 76.28 0.0
22 08:55 S 22 G 31 16.09 Fair CLR 27.8 21.5 69% 30 76.28 0.0
22 08:35 S 22 G 31 16.09 Fair CLR 26.3 21.2 74% 28 76.28 0.0
22 08:15 S 17 16.09 Fair CLR 26 21.1 74% 27 76.3 0.0
22 07:55 Calm 16.09 Fair CLR 25.3 21 77% 26 76.28 0.0
22 07:35 Calm 16.09 Fair CLR 24.3 20.8 81% 25 76.3 0.0
22 07:15 Calm 16.09 Fair CLR 23.5 20.5 83% 76.3 0.0
22 06:55 Calm 16.09 Fair CLR 22.9 20.3 25.5 22.1 85% 76.3 0.0
22 06:35 Calm 16.09 Fair CLR 22.3 20.1 87% 76.28 0.0
22 06:15 Calm 16.09 Fair CLR 22.2 20 87% 76.3 0.0
22 05:55 Calm 16.09 Fair CLR 22.4 20.1 87% 76.3 0.0
22 05:35 Calm 16.09 Fair CLR 22.7 20.1 85% 76.3 0.0
22 05:15 Calm 16.09 Fair CLR 22.8 20.2 85% 76.3 0.0
22 04:55 Calm 16.09 Fair CLR 22.8 20.2 85% 76.3 0.0
22 04:35 Calm 16.09 Fair CLR 23 20.2 84% 76.3 0.0
22 04:15 Calm 16.09 Fair CLR 23 20.2 84% 76.3 0.0
22 03:55 Calm 16.09 Fair CLR 23.5 20.2 82% 76.3 0.0
22 03:35 Calm 16.09 Fair CLR 23.7 20.3 81% 76.3 0.0
Date Time (cdt) Wind (kph) Vis. (km) Weather Sky Cond. Air Dwpt Max. Min. Relative Humidity Wind Chill (°C) Heat Index (°C) altimeter (cm) sea level (mb) 1 hr 3 hr 6 hr
6 hour
Temperature (ºC) Pressure Precipitation (cm)